sensor_id;sensor_type;location;lat;lon;timestamp;pressure;altitude;pressure_sealevel;temperature;humidity
85304;BME280;75708;47.930;13.782;2024-02-26T00:02:21;94617.56;;;-1.70;95.45
85304;BME280;75708;47.930;13.782;2024-02-26T00:04:47;94642.00;;;-1.44;96.34
85304;BME280;75708;47.930;13.782;2024-02-26T00:07:12;94642.69;;;-1.62;97.54
85304;BME280;75708;47.930;13.782;2024-02-26T00:09:38;94636.06;;;-1.65;97.86
85304;BME280;75708;47.930;13.782;2024-02-26T00:12:04;94636.69;;;-1.76;97.53
85304;BME280;75708;47.930;13.782;2024-02-26T00:14:30;94632.88;;;-1.73;97.96
85304;BME280;75708;47.930;13.782;2024-02-26T00:16:56;94642.38;;;-1.79;98.34
85304;BME280;75708;47.930;13.782;2024-02-26T00:19:22;94635.31;;;-1.78;98.73
85304;BME280;75708;47.930;13.782;2024-02-26T00:21:47;94643.53;;;-1.75;99.22
85304;BME280;75708;47.930;13.782;2024-02-26T00:24:13;94635.00;;;-1.50;99.57
85304;BME280;75708;47.930;13.782;2024-02-26T00:26:39;94631.94;;;-1.47;99.40
85304;BME280;75708;47.930;13.782;2024-02-26T00:29:04;94629.69;;;-1.37;98.67
85304;BME280;75708;47.930;13.782;2024-02-26T00:31:30;94625.28;;;-1.43;98.92
85304;BME280;75708;47.930;13.782;2024-02-26T00:33:55;94615.00;;;-1.45;98.78
85304;BME280;75708;47.930;13.782;2024-02-26T00:36:21;94623.16;;;-1.28;99.55
85304;BME280;75708;47.930;13.782;2024-02-26T00:38:46;94623.06;;;-1.08;99.67
85304;BME280;75708;47.930;13.782;2024-02-26T00:41:17;94616.66;;;-1.19;99.37
85304;BME280;75708;47.930;13.782;2024-02-26T00:43:43;94621.97;;;-1.01;99.53
85304;BME280;75708;47.930;13.782;2024-02-26T00:46:08;94628.63;;;-0.98;99.72
85304;BME280;75708;47.930;13.782;2024-02-26T00:48:34;94620.16;;;-1.00;100.00
85304;BME280;75708;47.930;13.782;2024-02-26T00:50:59;94621.94;;;-0.94;99.43
85304;BME280;75708;47.930;13.782;2024-02-26T00:53:25;94617.22;;;-0.86;99.95
85304;BME280;75708;47.930;13.782;2024-02-26T00:55:51;94607.53;;;-0.85;99.68
85304;BME280;75708;47.930;13.782;2024-02-26T00:58:16;94594.16;;;-1.02;99.64
85304;BME280;75708;47.930;13.782;2024-02-26T01:00:42;94606.19;;;-0.94;99.68
85304;BME280;75708;47.930;13.782;2024-02-26T01:03:07;94601.22;;;-1.02;99.36
85304;BME280;75708;47.930;13.782;2024-02-26T01:05:35;94595.50;;;-0.93;99.73
85304;BME280;75708;47.930;13.782;2024-02-26T01:08:01;94585.72;;;-1.04;99.50
85304;BME280;75708;47.930;13.782;2024-02-26T01:10:26;94592.09;;;-0.93;100.00
85304;BME280;75708;47.930;13.782;2024-02-26T01:12:52;94581.25;;;-0.97;99.48
85304;BME280;75708;47.930;13.782;2024-02-26T01:15:17;94580.66;;;-0.99;99.56
85304;BME280;75708;47.930;13.782;2024-02-26T01:17:47;94571.66;;;-0.85;99.66
85304;BME280;75708;47.930;13.782;2024-02-26T01:20:12;94568.88;;;-0.90;99.96
85304;BME280;75708;47.930;13.782;2024-02-26T01:22:38;94565.88;;;-0.93;99.71
85304;BME280;75708;47.930;13.782;2024-02-26T01:25:06;94561.06;;;-0.96;100.00
85304;BME280;75708;47.930;13.782;2024-02-26T01:27:32;94561.66;;;-1.19;99.73
85304;BME280;75708;47.930;13.782;2024-02-26T01:29:58;94567.97;;;-1.27;100.00
85304;BME280;75708;47.930;13.782;2024-02-26T01:32:23;94567.16;;;-1.27;99.57
85304;BME280;75708;47.930;13.782;2024-02-26T01:34:49;94563.59;;;-1.33;99.22
85304;BME280;75708;47.930;13.782;2024-02-26T01:37:14;94569.03;;;-1.34;99.55
85304;BME280;75708;47.930;13.782;2024-02-26T01:39:40;94561.09;;;-1.53;99.45
85304;BME280;75708;47.930;13.782;2024-02-26T01:42:07;94560.75;;;-1.63;99.17
85304;BME280;75708;47.930;13.782;2024-02-26T01:44:32;94558.78;;;-1.67;98.79
85304;BME280;75708;47.930;13.782;2024-02-26T01:46:58;94561.81;;;-1.70;99.29
85304;BME280;75708;47.930;13.782;2024-02-26T01:49:24;94567.34;;;-1.54;99.09
85304;BME280;75708;47.930;13.782;2024-02-26T01:51:50;94564.56;;;-1.59;98.91
85304;BME280;75708;47.930;13.782;2024-02-26T01:54:15;94566.56;;;-1.61;99.16
85304;BME280;75708;47.930;13.782;2024-02-26T01:56:41;94554.34;;;-1.73;99.52
85304;BME280;75708;47.930;13.782;2024-02-26T01:59:08;94553.34;;;-1.72;99.82
85304;BME280;75708;47.930;13.782;2024-02-26T02:01:34;94556.56;;;-1.70;99.79
85304;BME280;75708;47.930;13.782;2024-02-26T02:04:00;94555.56;;;-1.76;99.62
85304;BME280;75708;47.930;13.782;2024-02-26T02:06:26;94541.66;;;-1.70;99.73
85304;BME280;75708;47.930;13.782;2024-02-26T02:08:54;94551.03;;;-1.56;100.00
85304;BME280;75708;47.930;13.782;2024-02-26T02:11:19;94557.53;;;-1.33;100.00
85304;BME280;75708;47.930;13.782;2024-02-26T02:13:45;94557.53;;;-1.33;100.00
85304;BME280;75708;47.930;13.782;2024-02-26T02:16:11;94547.91;;;-1.39;99.36
85304;BME280;75708;47.930;13.782;2024-02-26T02:18:37;94546.94;;;-1.45;99.69
85304;BME280;75708;47.930;13.782;2024-02-26T02:21:03;94546.47;;;-1.35;99.40
85304;BME280;75708;47.930;13.782;2024-02-26T02:23:28;94535.88;;;-1.47;99.58
85304;BME280;75708;47.930;13.782;2024-02-26T02:25:56;94542.03;;;-1.66;99.10
85304;BME280;75708;47.930;13.782;2024-02-26T02:28:23;94553.91;;;-1.64;99.51
85304;BME280;75708;47.930;13.782;2024-02-26T02:30:51;94551.75;;;-1.73;99.24
85304;BME280;75708;47.930;13.782;2024-02-26T02:33:16;94553.75;;;-1.75;99.56
85304;BME280;75708;47.930;13.782;2024-02-26T02:35:42;94547.75;;;-1.82;98.62
85304;BME280;75708;47.930;13.782;2024-02-26T02:38:08;94554.84;;;-1.90;99.43
85304;BME280;75708;47.930;13.782;2024-02-26T02:40:33;94534.59;;;-2.07;99.61
85304;BME280;75708;47.930;13.782;2024-02-26T02:42:59;94541.00;;;-1.97;100.00
85304;BME280;75708;47.930;13.782;2024-02-26T02:45:27;94538.84;;;-2.06;99.98
85304;BME280;75708;47.930;13.782;2024-02-26T02:47:52;94550.06;;;-1.99;99.73
85304;BME280;75708;47.930;13.782;2024-02-26T02:50:18;94546.28;;;-2.10;100.00
85304;BME280;75708;47.930;13.782;2024-02-26T02:52:43;94548.84;;;-1.97;99.60
85304;BME280;75708;47.930;13.782;2024-02-26T02:55:09;94546.25;;;-1.97;99.79
85304;BME280;75708;47.930;13.782;2024-02-26T02:57:34;94553.38;;;-1.79;100.00
85304;BME280;75708;47.930;13.782;2024-02-26T03:00:07;94539.66;;;-1.74;99.63
85304;BME280;75708;47.930;13.782;2024-02-26T03:02:32;94543.53;;;-1.83;99.57
85304;BME280;75708;47.930;13.782;2024-02-26T03:05:01;94536.53;;;-1.90;99.35
85304;BME280;75708;47.930;13.782;2024-02-26T03:07:27;94545.19;;;-1.89;99.42
85304;BME280;75708;47.930;13.782;2024-02-26T03:09:53;94545.59;;;-1.92;98.91
85304;BME280;75708;47.930;13.782;2024-02-26T03:12:18;94551.09;;;-2.07;98.75
85304;BME280;75708;47.930;13.782;2024-02-26T03:14:44;94550.72;;;-2.10;99.31
85304;BME280;75708;47.930;13.782;2024-02-26T03:17:09;94553.09;;;-2.02;99.50
85304;BME280;75708;47.930;13.782;2024-02-26T03:19:35;94559.59;;;-2.11;99.56
85304;BME280;75708;47.930;13.782;2024-02-26T03:22:00;94550.97;;;-2.25;99.04
85304;BME280;75708;47.930;13.782;2024-02-26T03:24:26;94550.97;;;-2.25;99.23
85304;BME280;75708;47.930;13.782;2024-02-26T03:26:51;94549.16;;;-2.24;99.67
85304;BME280;75708;47.930;13.782;2024-02-26T03:29:17;94554.63;;;-2.33;99.63
85304;BME280;75708;47.930;13.782;2024-02-26T03:31:42;94554.63;;;-2.33;99.04
85304;BME280;75708;47.930;13.782;2024-02-26T03:34:08;94569.50;;;-2.20;99.70
85304;BME280;75708;47.930;13.782;2024-02-26T03:36:34;94563.88;;;-2.30;100.00
85304;BME280;75708;47.930;13.782;2024-02-26T03:38:59;94548.03;;;-2.42;100.00
85304;BME280;75708;47.930;13.782;2024-02-26T03:41:25;94538.78;;;-2.38;100.00
85304;BME280;75708;47.930;13.782;2024-02-26T03:43:50;94557.59;;;-2.16;99.75
85304;BME280;75708;47.930;13.782;2024-02-26T03:46:16;94547.72;;;-2.14;100.00
85304;BME280;75708;47.930;13.782;2024-02-26T03:48:41;94541.28;;;-2.18;100.00
85304;BME280;75708;47.930;13.782;2024-02-26T03:51:09;94532.69;;;-2.25;100.00
85304;BME280;75708;47.930;13.782;2024-02-26T03:53:36;94552.75;;;-2.19;99.63
85304;BME280;75708;47.930;13.782;2024-02-26T03:56:05;94554.81;;;-2.21;99.91
85304;BME280;75708;47.930;13.782;2024-02-26T03:58:31;94539.09;;;-2.21;100.00
85304;BME280;75708;47.930;13.782;2024-02-26T04:00:56;94546.72;;;-2.13;100.00
85304;BME280;75708;47.930;13.782;2024-02-26T04:03:22;94529.25;;;-2.25;99.88
85304;BME280;75708;47.930;13.782;2024-02-26T04:05:47;94524.47;;;-2.35;99.89
85304;BME280;75708;47.930;13.782;2024-02-26T04:08:13;94542.91;;;-2.17;100.00
85304;BME280;75708;47.930;13.782;2024-02-26T04:10:38;94538.97;;;-2.46;99.27
85304;BME280;75708;47.930;13.782;2024-02-26T04:13:05;94524.91;;;-2.45;99.00
85304;BME280;75708;47.930;13.782;2024-02-26T04:15:31;94533.16;;;-2.41;99.15
85304;BME280;75708;47.930;13.782;2024-02-26T04:17:57;94532.97;;;-2.53;98.97
85304;BME280;75708;47.930;13.782;2024-02-26T04:20:23;94540.03;;;-2.60;98.74
85304;BME280;75708;47.930;13.782;2024-02-26T04:22:48;94547.69;;;-2.65;99.02
85304;BME280;75708;47.930;13.782;2024-02-26T04:25:14;94552.53;;;-2.69;98.56
85304;BME280;75708;47.930;13.782;2024-02-26T04:27:39;94556.91;;;-2.62;98.75
85304;BME280;75708;47.930;13.782;2024-02-26T04:30:06;94555.78;;;-2.86;98.23
85304;BME280;75708;47.930;13.782;2024-02-26T04:32:32;94557.97;;;-2.77;99.09
85304;BME280;75708;47.930;13.782;2024-02-26T04:34:58;94550.72;;;-2.75;98.98
85304;BME280;75708;47.930;13.782;2024-02-26T04:37:23;94559.53;;;-2.62;98.86
85304;BME280;75708;47.930;13.782;2024-02-26T04:39:49;94557.34;;;-2.66;98.96
85304;BME280;75708;47.930;13.782;2024-02-26T04:42:14;94565.00;;;-2.77;98.69
85304;BME280;75708;47.930;13.782;2024-02-26T04:44:40;94559.16;;;-2.73;98.29
85304;BME280;75708;47.930;13.782;2024-02-26T04:47:05;94569.41;;;-2.78;98.41
85304;BME280;75708;47.930;13.782;2024-02-26T04:49:32;94561.34;;;-2.63;98.75
85304;BME280;75708;47.930;13.782;2024-02-26T04:51:59;94557.94;;;-2.57;98.23
85304;BME280;75708;47.930;13.782;2024-02-26T04:54:24;94553.88;;;-2.46;97.97
85304;BME280;75708;47.930;13.782;2024-02-26T04:56:50;94551.84;;;-2.44;97.53
85304;BME280;75708;47.930;13.782;2024-02-26T04:59:15;94553.44;;;-2.37;97.35
85304;BME280;75708;47.930;13.782;2024-02-26T05:01:41;94547.28;;;-2.62;97.00
85304;BME280;75708;47.930;13.782;2024-02-26T05:04:06;94555.53;;;-2.72;97.32
85304;BME280;75708;47.930;13.782;2024-02-26T05:06:32;94563.78;;;-2.68;97.92
85304;BME280;75708;47.930;13.782;2024-02-26T05:08:57;94564.56;;;-2.61;98.01
85304;BME280;75708;47.930;13.782;2024-02-26T05:11:23;94565.38;;;-2.60;97.41
85304;BME280;75708;47.930;13.782;2024-02-26T05:13:49;94559.53;;;-2.56;97.42
85304;BME280;75708;47.930;13.782;2024-02-26T05:16:14;94549.13;;;-2.76;97.14
85304;BME280;75708;47.930;13.782;2024-02-26T05:18:40;94559.38;;;-2.81;97.27
85304;BME280;75708;47.930;13.782;2024-02-26T05:21:05;94546.75;;;-2.90;97.54
85304;BME280;75708;47.930;13.782;2024-02-26T05:23:31;94542.13;;;-2.95;97.58
85304;BME280;75708;47.930;13.782;2024-02-26T05:25:56;94557.97;;;-2.83;98.01
85304;BME280;75708;47.930;13.782;2024-02-26T05:28:22;94561.78;;;-2.79;97.66
85304;BME280;75708;47.930;13.782;2024-02-26T05:30:47;94558.59;;;-2.94;97.58
85304;BME280;75708;47.930;13.782;2024-02-26T05:33:13;94569.66;;;-2.92;97.58
85304;BME280;75708;47.930;13.782;2024-02-26T05:35:38;94561.63;;;-3.04;97.38
85304;BME280;75708;47.930;13.782;2024-02-26T05:38:05;94550.97;;;-3.09;97.77
85304;BME280;75708;47.930;13.782;2024-02-26T05:40:31;94542.75;;;-3.19;98.14
85304;BME280;75708;47.930;13.782;2024-02-26T05:42:56;94568.25;;;-3.08;98.31
85304;BME280;75708;47.930;13.782;2024-02-26T05:45:22;94573.66;;;-3.16;98.43
85304;BME280;75708;47.930;13.782;2024-02-26T05:47:47;94566.44;;;-3.27;98.18
85304;BME280;75708;47.930;13.782;2024-02-26T05:50:15;94579.50;;;-3.27;98.54
85304;BME280;75708;47.930;13.782;2024-02-26T05:52:40;94564.81;;;-3.42;98.37
85304;BME280;75708;47.930;13.782;2024-02-26T05:55:07;94576.69;;;-3.46;98.83
85304;BME280;75708;47.930;13.782;2024-02-26T05:57:34;94582.28;;;-3.55;98.90
85304;BME280;75708;47.930;13.782;2024-02-26T05:59:59;94584.88;;;-3.62;97.98
85304;BME280;75708;47.930;13.782;2024-02-26T06:02:30;94574.25;;;-3.47;98.04
85304;BME280;75708;47.930;13.782;2024-02-26T06:04:56;94580.06;;;-3.52;97.43
85304;BME280;75708;47.930;13.782;2024-02-26T06:07:23;94587.69;;;-3.50;97.52
85304;BME280;75708;47.930;13.782;2024-02-26T06:09:48;94586.88;;;-3.51;98.52
85304;BME280;75708;47.930;13.782;2024-02-26T06:12:14;94584.88;;;-3.42;98.61
85304;BME280;75708;47.930;13.782;2024-02-26T06:14:39;94584.72;;;-3.21;98.08
85304;BME280;75708;47.930;13.782;2024-02-26T06:17:05;94600.59;;;-3.09;97.64
85304;BME280;75708;47.930;13.782;2024-02-26T06:19:31;94600.56;;;-2.56;97.22
85304;BME280;75708;47.930;13.782;2024-02-26T06:21:57;94595.47;;;-1.80;94.99
85304;BME280;75708;47.930;13.782;2024-02-26T06:24:22;94598.75;;;-1.22;93.63
85304;BME280;75708;47.930;13.782;2024-02-26T06:26:48;94599.44;;;-0.59;92.29
85304;BME280;75708;47.930;13.782;2024-02-26T06:29:14;94575.44;;;0.17;88.89
85304;BME280;75708;47.930;13.782;2024-02-26T06:31:39;94571.31;;;0.81;87.25
85304;BME280;75708;47.930;13.782;2024-02-26T06:34:05;94575.00;;;1.85;84.84
85304;BME280;75708;47.930;13.782;2024-02-26T06:36:31;94585.09;;;1.76;78.98
85304;BME280;75708;47.930;13.782;2024-02-26T06:38:57;94571.38;;;1.74;79.26
85304;BME280;75708;47.930;13.782;2024-02-26T06:41:23;94586.97;;;2.28;77.54
85304;BME280;75708;47.930;13.782;2024-02-26T06:43:53;94592.06;;;2.46;76.37
85304;BME280;75708;47.930;13.782;2024-02-26T06:46:19;94587.53;;;2.86;74.68
85304;BME280;75708;47.930;13.782;2024-02-26T06:48:45;94583.78;;;2.54;76.66
85304;BME280;75708;47.930;13.782;2024-02-26T06:51:10;94593.66;;;2.75;75.43
85304;BME280;75708;47.930;13.782;2024-02-26T06:53:36;94602.69;;;3.24;73.36
85304;BME280;75708;47.930;13.782;2024-02-26T06:56:01;94600.50;;;3.05;73.42
85304;BME280;75708;47.930;13.782;2024-02-26T06:58:27;94593.31;;;2.43;75.68
85304;BME280;75708;47.930;13.782;2024-02-26T07:00:52;94599.19;;;2.90;75.25
85304;BME280;75708;47.930;13.782;2024-02-26T07:03:18;94598.88;;;2.87;74.12
85304;BME280;75708;47.930;13.782;2024-02-26T07:05:43;94601.28;;;2.88;73.32
85304;BME280;75708;47.930;13.782;2024-02-26T07:08:10;94590.75;;;3.72;73.88
85304;BME280;75708;47.930;13.782;2024-02-26T07:10:36;94591.72;;;3.49;71.90
85304;BME280;75708;47.930;13.782;2024-02-26T07:13:01;94582.66;;;4.39;72.41
85304;BME280;75708;47.930;13.782;2024-02-26T07:15:27;94588.84;;;4.49;68.38
85304;BME280;75708;47.930;13.782;2024-02-26T07:17:53;94592.31;;;5.04;67.82
85304;BME280;75708;47.930;13.782;2024-02-26T07:20:18;94574.84;;;5.66;66.20
85304;BME280;75708;47.930;13.782;2024-02-26T07:22:44;94586.34;;;5.82;64.49
85304;BME280;75708;47.930;13.782;2024-02-26T07:25:09;94558.19;;;5.71;64.13
85304;BME280;75708;47.930;13.782;2024-02-26T07:27:41;94587.78;;;6.00;65.78
85304;BME280;75708;47.930;13.782;2024-02-26T07:30:07;94597.22;;;6.23;66.29
85304;BME280;75708;47.930;13.782;2024-02-26T07:32:34;94594.00;;;5.79;65.13
85304;BME280;75708;47.930;13.782;2024-02-26T07:35:00;94591.63;;;5.82;67.25
85304;BME280;75708;47.930;13.782;2024-02-26T07:37:25;94587.59;;;5.38;66.68
85304;BME280;75708;47.930;13.782;2024-02-26T07:39:51;94592.22;;;5.52;67.85
85304;BME280;75708;47.930;13.782;2024-02-26T07:42:17;94570.56;;;4.97;68.81
85304;BME280;75708;47.930;13.782;2024-02-26T07:44:42;94598.19;;;5.38;69.12
85304;BME280;75708;47.930;13.782;2024-02-26T07:47:11;94613.16;;;5.54;68.84
85304;BME280;75708;47.930;13.782;2024-02-26T07:49:37;94604.31;;;6.17;68.10
85304;BME280;75708;47.930;13.782;2024-02-26T07:52:02;94610.22;;;6.29;67.58
85304;BME280;75708;47.930;13.782;2024-02-26T07:54:27;94610.94;;;6.67;65.70
85304;BME280;75708;47.930;13.782;2024-02-26T07:56:53;94609.31;;;6.61;64.67
85304;BME280;75708;47.930;13.782;2024-02-26T07:59:18;94618.28;;;6.02;66.64
85304;BME280;75708;47.930;13.782;2024-02-26T08:01:49;94605.91;;;5.76;67.02
85304;BME280;75708;47.930;13.782;2024-02-26T08:04:14;94606.13;;;6.64;66.23
85304;BME280;75708;47.930;13.782;2024-02-26T08:06:40;94618.19;;;6.92;65.84
85304;BME280;75708;47.930;13.782;2024-02-26T08:09:05;94613.72;;;7.17;65.95
85304;BME280;75708;47.930;13.782;2024-02-26T08:11:32;94610.19;;;6.82;66.16
85304;BME280;75708;47.930;13.782;2024-02-26T08:13:57;94616.97;;;6.52;67.72
85304;BME280;75708;47.930;13.782;2024-02-26T08:16:24;94621.50;;;6.62;65.49
85304;BME280;75708;47.930;13.782;2024-02-26T08:18:50;94622.50;;;6.40;66.78
85304;BME280;75708;47.930;13.782;2024-02-26T08:21:15;94621.28;;;6.16;67.90
85304;BME280;75708;47.930;13.782;2024-02-26T08:23:43;94625.09;;;6.30;68.10
85304;BME280;75708;47.930;13.782;2024-02-26T08:26:09;94604.84;;;6.14;68.92
85304;BME280;75708;47.930;13.782;2024-02-26T08:28:39;94622.13;;;6.22;68.72
85304;BME280;75708;47.930;13.782;2024-02-26T08:31:04;94615.59;;;6.45;67.50
85304;BME280;75708;47.930;13.782;2024-02-26T08:33:30;94624.94;;;7.55;65.86
85304;BME280;75708;47.930;13.782;2024-02-26T08:35:59;94623.97;;;6.73;67.80
85304;BME280;75708;47.930;13.782;2024-02-26T08:38:24;94614.41;;;6.77;67.19
85304;BME280;75708;47.930;13.782;2024-02-26T08:40:50;94614.25;;;7.09;66.51
85304;BME280;75708;47.930;13.782;2024-02-26T08:43:15;94614.50;;;7.03;66.48
85304;BME280;75708;47.930;13.782;2024-02-26T08:45:41;94625.53;;;6.69;66.22
85304;BME280;75708;47.930;13.782;2024-02-26T08:48:07;94629.31;;;6.89;68.41
85304;BME280;75708;47.930;13.782;2024-02-26T08:50:32;94632.28;;;7.02;65.50
85304;BME280;75708;47.930;13.782;2024-02-26T08:52:58;94629.16;;;6.48;66.79
85304;BME280;75708;47.930;13.782;2024-02-26T08:55:26;94635.03;;;7.53;65.29
85304;BME280;75708;47.930;13.782;2024-02-26T08:57:51;94627.31;;;7.77;63.40
85304;BME280;75708;47.930;13.782;2024-02-26T09:00:17;94624.38;;;7.48;66.01
85304;BME280;75708;47.930;13.782;2024-02-26T09:02:45;94621.72;;;7.33;65.21
85304;BME280;75708;47.930;13.782;2024-02-26T09:05:11;94616.69;;;7.87;63.02
85304;BME280;75708;47.930;13.782;2024-02-26T09:07:36;94628.81;;;8.59;61.25
85304;BME280;75708;47.930;13.782;2024-02-26T09:10:02;94614.41;;;10.26;59.30
85304;BME280;75708;47.930;13.782;2024-02-26T09:12:28;94621.97;;;10.19;56.79
85304;BME280;75708;47.930;13.782;2024-02-26T09:14:54;94623.72;;;9.61;60.09
85304;BME280;75708;47.930;13.782;2024-02-26T09:17:21;94626.13;;;8.64;60.15
85304;BME280;75708;47.930;13.782;2024-02-26T09:19:47;94641.66;;;7.66;63.32
85304;BME280;75708;47.930;13.782;2024-02-26T09:22:12;94644.31;;;7.50;64.63
85304;BME280;75708;47.930;13.782;2024-02-26T09:24:38;94632.13;;;7.65;65.77
85304;BME280;75708;47.930;13.782;2024-02-26T09:27:03;94650.19;;;7.63;65.63
85304;BME280;75708;47.930;13.782;2024-02-26T09:29:29;94658.31;;;7.15;67.83
85304;BME280;75708;47.930;13.782;2024-02-26T09:31:54;94654.69;;;7.92;66.70
85304;BME280;75708;47.930;13.782;2024-02-26T09:34:20;94657.56;;;7.20;67.49
85304;BME280;75708;47.930;13.782;2024-02-26T09:36:45;94660.56;;;6.71;69.86
85304;BME280;75708;47.930;13.782;2024-02-26T09:39:11;94654.88;;;7.10;69.16
85304;BME280;75708;47.930;13.782;2024-02-26T09:41:37;94653.19;;;6.89;70.77
85304;BME280;75708;47.930;13.782;2024-02-26T09:44:04;94652.03;;;7.72;68.01
85304;BME280;75708;47.930;13.782;2024-02-26T09:46:30;94646.97;;;7.66;69.28
85304;BME280;75708;47.930;13.782;2024-02-26T09:48:56;94639.75;;;7.21;70.52
85304;BME280;75708;47.930;13.782;2024-02-26T09:51:25;94661.78;;;7.16;71.29
85304;BME280;75708;47.930;13.782;2024-02-26T09:53:52;94658.09;;;7.32;71.46
85304;BME280;75708;47.930;13.782;2024-02-26T09:56:18;94664.19;;;7.23;72.44
85304;BME280;75708;47.930;13.782;2024-02-26T09:58:44;94647.38;;;6.92;72.40
85304;BME280;75708;47.930;13.782;2024-02-26T10:01:16;94654.03;;;6.99;72.97
85304;BME280;75708;47.930;13.782;2024-02-26T10:03:43;94658.34;;;7.26;72.94
85304;BME280;75708;47.930;13.782;2024-02-26T10:06:12;94655.50;;;7.88;70.35
85304;BME280;75708;47.930;13.782;2024-02-26T10:08:39;94657.91;;;7.89;69.62
85304;BME280;75708;47.930;13.782;2024-02-26T10:11:08;94641.13;;;8.14;69.39
85304;BME280;75708;47.930;13.782;2024-02-26T10:13:35;94658.13;;;8.13;70.46
85304;BME280;75708;47.930;13.782;2024-02-26T10:16:02;94664.19;;;8.64;68.43
85304;BME280;75708;47.930;13.782;2024-02-26T10:18:49;94656.84;;;9.55;65.32
85304;BME280;75708;47.930;13.782;2024-02-26T10:21:20;94654.44;;;9.09;65.11
85304;BME280;75708;47.930;13.782;2024-02-26T10:23:46;94656.16;;;8.75;67.06
85304;BME280;75708;47.930;13.782;2024-02-26T10:26:18;94638.19;;;8.21;69.13
85304;BME280;75708;47.930;13.782;2024-02-26T10:28:44;94664.50;;;8.43;69.30
85304;BME280;75708;47.930;13.782;2024-02-26T10:31:11;94664.81;;;9.11;67.31
85304;BME280;75708;47.930;13.782;2024-02-26T10:33:39;94666.94;;;9.09;66.54
85304;BME280;75708;47.930;13.782;2024-02-26T10:36:05;94639.50;;;9.08;64.94
85304;BME280;75708;47.930;13.782;2024-02-26T10:38:32;94634.03;;;9.33;64.76
85304;BME280;75708;47.930;13.782;2024-02-26T10:40:58;94645.59;;;9.19;64.89
85304;BME280;75708;47.930;13.782;2024-02-26T10:43:25;94671.69;;;9.17;66.57
85304;BME280;75708;47.930;13.782;2024-02-26T10:45:50;94659.72;;;9.19;64.06
85304;BME280;75708;47.930;13.782;2024-02-26T10:48:17;94676.03;;;8.97;67.14
85304;BME280;75708;47.930;13.782;2024-02-26T10:50:43;94672.56;;;9.02;65.39
85304;BME280;75708;47.930;13.782;2024-02-26T10:53:29;94675.81;;;9.43;63.62
85304;BME280;75708;47.930;13.782;2024-02-26T10:56:04;94677.78;;;9.27;64.80
85304;BME280;75708;47.930;13.782;2024-02-26T10:58:31;94667.00;;;8.93;65.37
85304;BME280;75708;47.930;13.782;2024-02-26T11:00:57;94676.16;;;8.67;64.56
85304;BME280;75708;47.930;13.782;2024-02-26T11:03:24;94664.09;;;8.95;64.67
85304;BME280;75708;47.930;13.782;2024-02-26T11:05:50;94673.34;;;9.07;60.82
85304;BME280;75708;47.930;13.782;2024-02-26T11:08:18;94660.25;;;9.16;61.16
85304;BME280;75708;47.930;13.782;2024-02-26T11:10:47;94641.91;;;9.15;60.11
85304;BME280;75708;47.930;13.782;2024-02-26T11:13:14;94656.25;;;9.19;61.89
85304;BME280;75708;47.930;13.782;2024-02-26T11:15:40;94643.69;;;8.65;61.62
85304;BME280;75708;47.930;13.782;2024-02-26T11:18:07;94585.06;;;7.50;63.08
85304;BME280;75708;47.930;13.782;2024-02-26T11:20:34;94658.16;;;7.98;63.79
85304;BME280;75708;47.930;13.782;2024-02-26T11:23:03;94662.41;;;7.69;64.00
85304;BME280;75708;47.930;13.782;2024-02-26T11:25:29;94664.00;;;7.65;64.78
85304;BME280;75708;47.930;13.782;2024-02-26T11:27:59;94644.53;;;8.45;63.13
85304;BME280;75708;47.930;13.782;2024-02-26T11:30:30;94647.53;;;8.08;61.91
85304;BME280;75708;47.930;13.782;2024-02-26T11:32:57;94632.06;;;8.20;63.36
85304;BME280;75708;47.930;13.782;2024-02-26T11:35:23;94640.84;;;8.41;62.33
85304;BME280;75708;47.930;13.782;2024-02-26T11:37:56;94653.31;;;8.30;62.16
85304;BME280;75708;47.930;13.782;2024-02-26T11:40:24;94647.44;;;8.59;64.63
85304;BME280;75708;47.930;13.782;2024-02-26T11:42:50;94637.81;;;8.63;63.50
85304;BME280;75708;47.930;13.782;2024-02-26T11:48:14;94648.75;;;8.66;64.42
85304;BME280;75708;47.930;13.782;2024-02-26T11:50:53;94638.53;;;8.94;63.54
85304;BME280;75708;47.930;13.782;2024-02-26T11:53:23;94623.38;;;9.33;63.30
85304;BME280;75708;47.930;13.782;2024-02-26T11:58:44;94627.00;;;9.09;62.93
85304;BME280;75708;47.930;13.782;2024-02-26T12:01:35;94631.78;;;9.56;61.27
85304;BME280;75708;47.930;13.782;2024-02-26T12:04:02;94627.38;;;9.36;62.69
85304;BME280;75708;47.930;13.782;2024-02-26T12:06:28;94630.22;;;9.05;63.82
85304;BME280;75708;47.930;13.782;2024-02-26T12:08:55;94621.63;;;9.58;62.53
85304;BME280;75708;47.930;13.782;2024-02-26T12:11:21;94633.72;;;9.84;60.64
85304;BME280;75708;47.930;13.782;2024-02-26T12:13:47;94601.19;;;9.43;60.78
85304;BME280;75708;47.930;13.782;2024-02-26T12:16:40;94620.00;;;9.62;62.24
85304;BME280;75708;47.930;13.782;2024-02-26T12:19:08;94630.59;;;9.72;62.30
85304;BME280;75708;47.930;13.782;2024-02-26T12:21:35;94632.47;;;9.71;62.44
85304;BME280;75708;47.930;13.782;2024-02-26T12:24:12;94631.53;;;9.52;63.10
85304;BME280;75708;47.930;13.782;2024-02-26T12:26:38;94630.03;;;9.36;65.67
85304;BME280;75708;47.930;13.782;2024-02-26T12:29:04;94632.78;;;9.65;63.22
85304;BME280;75708;47.930;13.782;2024-02-26T12:31:31;94615.84;;;9.01;65.85
85304;BME280;75708;47.930;13.782;2024-02-26T12:33:57;94633.44;;;9.41;63.79
85304;BME280;75708;47.930;13.782;2024-02-26T12:36:22;94641.16;;;9.04;65.24
85304;BME280;75708;47.930;13.782;2024-02-26T12:38:51;94647.00;;;9.01;65.73
85304;BME280;75708;47.930;13.782;2024-02-26T12:41:17;94639.44;;;8.69;67.34
85304;BME280;75708;47.930;13.782;2024-02-26T12:43:42;94628.00;;;8.53;66.45
85304;BME280;75708;47.930;13.782;2024-02-26T12:46:08;94634.63;;;8.66;65.11
85304;BME280;75708;47.930;13.782;2024-02-26T12:48:33;94629.03;;;8.62;65.95
85304;BME280;75708;47.930;13.782;2024-02-26T12:51:00;94641.28;;;8.68;65.77
85304;BME280;75708;47.930;13.782;2024-02-26T12:53:26;94643.88;;;8.84;64.79
85304;BME280;75708;47.930;13.782;2024-02-26T12:55:54;94631.03;;;8.16;65.68
85304;BME280;75708;47.930;13.782;2024-02-26T12:58:21;94630.41;;;8.55;65.51